New Bedford, MA (02745)

12:09 AM EDT on March 24, 2017 (GMT -0400)
MAT141 | | Change Station

Elev 91 ft 41.70 °N, 70.92 °W | Updated 40 minutes ago

Clear
Clear
27.0 °F
Feels Like 27 °F
N
-
Wind Variable Wind from NW

Today
High -- | Low -- °F
--% Chance of Precip.
Yesterday
High -- | Low -- °F
Precip. -- in
Pressure 30.54 in
Visibility 10.0 miles
Clouds Clear
Windchill 27 °F
Dew Point 9 °F
Humidity 46%
Rainfall in
Snow Depth Not available.
6:39 AM 7:00 PM
Waning Crescent, 18% visible
METAR KEWB 240353Z AUTO 00000KT 10SM CLR M03/M12 A3053 RMK AO2 SLP340 T10331122
Pressure 30.54 in
Visibility 10.0 miles
Clouds Clear
Windchill 27 °F
Dew Point 9 °F
Humidity 46%
Rainfall in
Snow Depth Not available.
6:39 AM 7:00 PM
Waning Crescent, 18% visible
METAR KEWB 240353Z AUTO 00000KT 10SM CLR M03/M12 A3053 RMK AO2 SLP340 T10331122

Get Severe Weather Alerts

Thanks for signing up!

Be on the lookout for a verification email in your inbox.

You'll start receiving the daily forecast at 8 AM.

×

10-Day Weather Forecast

Almanac

Astronomy

Mar. 24, 2017 Rise Set
Actual Time
Civil Twilight
Nautical Twilight
Astronomical Twilight
Moon
Length of Visible Light
Length of Day
Tomorrow will be .
, % of the Moon is Illuminated

Today's Extremes

State Highs State Lows

Community

WunderPhotos

Upload Photos

1,962,540 photos uploaded!

WunderBlog® & News

Nearby

Air Quality

  Air Quality AQ Index Pollutant
Not available.

Snow Depth

Station Depth Elevation

Earthquake Activity

City Distance Mag. Time & Date
Minimum magnitude displayed is 2.5.

Earthquake Activity

City Distance Mag. Time & Date
Minimum magnitude displayed is 2.5.

Coastal Water Temperatures

Place Temperature

Stations

Nearby Weather Stations

Station Location Temp. Windchill Dew Point Humidity Wind Precip. Elev Updated Type
                   

Watches & Warnings

There are currently no watches in effect.